Time;durP1;ratioP1;P1;durP2;ratioP2;P2;SDS_P1;SDS_P2;PMS_P1;PMS_P2;Temp;Humidity;BMP_temperature;BMP_pressure;BME280_temperature;BME280_humidity;BME280_pressure;Samples;Min_cycle;Max_cycle;Signal;HPM_P1;HPM_P2
2023/11/08 00:01:52;;;;;;;8.17;5.07;;;;;;;;;;5030166;28;20427;-84
2023/11/08 00:04:19;;;;;;;9.10;5.70;;;;;;;;;;5022169;28;20445;-88
2023/11/08 00:06:44;;;;;;;7.13;4.33;;;;;;;;;;5013459;28;20802;-89
2023/11/08 00:09:10;;;;;;;6.73;4.60;;;;;;;;;;5011960;28;20557;-86
2023/11/08 00:11:38;;;;;;;7.20;5.10;;;;;;;;;;5012626;28;20420;-84
2023/11/08 00:14:05;;;;;;;9.00;4.47;;;;;;;;;;5012895;28;20415;-84
2023/11/08 00:16:31;;;;;;;10.40;6.23;;;;;;;;;;5011588;28;20934;-87
2023/11/08 00:18:57;;;;;;;9.40;5.50;;;;;;;;;;5012229;28;20410;-83
2023/11/08 00:21:29;;;;;;;8.80;6.00;;;;;;;;;;5012194;28;20514;-87
2023/11/08 00:23:54;;;;;;;7.13;5.77;;;;;;;;;;5012923;28;20414;-84
2023/11/08 00:26:20;;;;;;;9.87;6.33;;;;;;;;;;5013167;28;20486;-85
2023/11/08 00:28:47;;;;;;;8.77;5.90;;;;;;;;;;5016504;28;20442;-82
2023/11/08 00:31:12;;;;;;;8.80;5.83;;;;;;;;;;5016327;28;20423;-85
2023/11/08 00:33:38;;;;;;;12.37;6.33;;;;;;;;;;5016368;28;20937;-84
2023/11/08 00:36:05;;;;;;;6.87;5.90;;;;;;;;;;5019311;28;20465;-83
2023/11/08 00:38:31;;;;;;;11.50;6.63;;;;;;;;;;5036295;28;20427;-83
2023/11/08 00:40:58;;;;;;;11.43;7.60;;;;;;;;;;5035591;28;20795;-84
2023/11/08 00:43:24;;;;;;;10.27;6.47;;;;;;;;;;5051498;28;20429;-83
2023/11/08 00:45:51;;;;;;;8.87;6.60;;;;;;;;;;5035793;28;20526;-87
2023/11/08 00:48:17;;;;;;;10.50;6.90;;;;;;;;;;5051562;28;20175;-84
2023/11/08 00:50:44;;;;;;;9.53;7.80;;;;;;;;;;5035550;28;20435;-84
2023/11/08 00:53:15;;;;;;;9.23;6.40;;;;;;;;;;5034069;28;20422;-84
2023/11/08 00:55:41;;;;;;;9.17;6.93;;;;;;;;;;5031719;28;20444;-83
2023/11/08 00:58:08;;;;;;;9.97;6.13;;;;;;;;;;5025893;28;20937;-83
2023/11/08 01:00:34;;;;;;;9.37;6.80;;;;;;;;;;5034100;28;20409;-83
2023/11/08 01:03:00;;;;;;;10.03;7.43;;;;;;;;;;5033838;28;20809;-83
2023/11/08 01:05:26;;;;;;;8.70;6.40;;;;;;;;;;5034727;28;20448;-83
2023/11/08 01:07:52;;;;;;;9.90;6.93;;;;;;;;;;5025320;28;20429;-82
2023/11/08 01:10:21;;;;;;;12.40;7.70;;;;;;;;;;5034620;28;20428;-83
2023/11/08 01:12:47;;;;;;;10.87;5.87;;;;;;;;;;5035065;28;20422;-82
2023/11/08 01:15:13;;;;;;;9.40;7.57;;;;;;;;;;5035116;28;20420;-82
2023/11/08 01:17:39;;;;;;;9.97;7.40;;;;;;;;;;5035081;28;20417;-83
2023/11/08 01:20:06;;;;;;;7.83;6.97;;;;;;;;;;5035015;28;20953;-82
2023/11/08 01:22:32;;;;;;;10.00;7.87;;;;;;;;;;5034924;28;20420;-82
2023/11/08 01:24:58;;;;;;;8.43;7.20;;;;;;;;;;5033528;28;20416;-82
2023/11/08 01:27:24;;;;;;;7.80;6.57;;;;;;;;;;5034604;28;20417;-81
2023/11/08 01:29:50;;;;;;;11.27;6.80;;;;;;;;;;5034604;28;20769;-81
2023/11/08 01:32:16;;;;;;;10.53;6.60;;;;;;;;;;5034726;28;20425;-83
2023/11/08 01:34:43;;;;;;;9.90;7.67;;;;;;;;;;5033965;28;20831;-84
2023/11/08 01:37:09;;;;;;;9.83;7.80;;;;;;;;;;5034140;28;20434;-83
2023/11/08 01:39:36;;;;;;;8.17;7.47;;;;;;;;;;5031294;28;20409;-83
2023/11/08 01:42:02;;;;;;;9.27;6.50;;;;;;;;;;5034401;28;20899;-83
2023/11/08 01:44:28;;;;;;;9.87;7.03;;;;;;;;;;5034667;28;20416;-84
2023/11/08 01:46:54;;;;;;;7.60;6.13;;;;;;;;;;5025078;28;20467;-84
2023/11/08 01:49:20;;;;;;;8.97;7.80;;;;;;;;;;5034390;28;20408;-83
2023/11/08 01:51:49;;;;;;;7.87;6.17;;;;;;;;;;5033435;28;20436;-84
2023/11/08 01:54:15;;;;;;;9.17;7.87;;;;;;;;;;5034811;28;20446;-84
2023/11/08 01:56:41;;;;;;;11.70;6.73;;;;;;;;;;5034090;28;20463;-84
2023/11/08 01:59:11;;;;;;;16.33;8.37;;;;;;;;;;5034734;28;20827;-85
2023/11/08 02:01:36;;;;;;;9.37;7.10;;;;;;;;;;5033542;28;20436;-85
2023/11/08 02:04:02;;;;;;;8.27;6.13;;;;;;;;;;5034291;28;20424;-84
2023/11/08 02:06:28;;;;;;;8.33;6.37;;;;;;;;;;5034181;28;20826;-84
2023/11/08 02:08:55;;;;;;;8.70;6.27;;;;;;;;;;5033878;28;20440;-85
2023/11/08 02:11:22;;;;;;;8.63;7.23;;;;;;;;;;5031226;28;20417;-84
2023/11/08 02:13:48;;;;;;;13.00;6.30;;;;;;;;;;5021282;28;20427;-84
2023/11/08 02:16:14;;;;;;;8.20;7.13;;;;;;;;;;5014710;28;20514;-85
2023/11/08 02:18:41;;;;;;;9.90;7.03;;;;;;;;;;5014698;28;20468;-84
2023/11/08 02:21:08;;;;;;;13.00;7.30;;;;;;;;;;5014723;28;20448;-84
2023/11/08 02:23:35;;;;;;;11.97;7.37;;;;;;;;;;5014658;28;20419;-85
2023/11/08 02:26:01;;;;;;;8.80;7.43;;;;;;;;;;5014070;28;20528;-83
2023/11/08 02:28:27;;;;;;;7.40;5.90;;;;;;;;;;5028526;28;20418;-84
2023/11/08 02:30:54;;;;;;;11.10;6.67;;;;;;;;;;5033964;28;20408;-84
2023/11/08 02:33:23;;;;;;;8.43;6.50;;;;;;;;;;5026906;28;20503;-82
2023/11/08 02:35:49;;;;;;;8.97;7.17;;;;;;;;;;5034004;28;20456;-84
2023/11/08 02:38:15;;;;;;;7.33;5.27;;;;;;;;;;5033988;28;20905;-85
2023/11/08 02:40:42;;;;;;;9.80;6.37;;;;;;;;;;5033632;28;20405;-84
2023/11/08 02:43:11;;;;;;;6.90;6.20;;;;;;;;;;5033916;28;20414;-85
2023/11/08 02:45:37;;;;;;;8.47;5.80;;;;;;;;;;5033844;28;20473;-84
2023/11/08 02:48:05;;;;;;;6.90;5.77;;;;;;;;;;5033908;28;20406;-86
2023/11/08 02:50:31;;;;;;;6.83;5.67;;;;;;;;;;5032311;28;20433;-83
2023/11/08 02:53:01;;;;;;;8.30;5.30;;;;;;;;;;5032510;28;20777;-83
2023/11/08 02:55:27;;;;;;;7.17;5.13;;;;;;;;;;5031987;28;20472;-83
2023/11/08 02:57:53;;;;;;;7.33;5.03;;;;;;;;;;5033706;28;20859;-83
2023/11/08 03:00:20;;;;;;;13.93;6.53;;;;;;;;;;5033319;28;20478;-83
2023/11/08 03:02:51;;;;;;;7.13;5.13;;;;;;;;;;5033645;28;20416;-84
2023/11/08 03:05:21;;;;;;;9.90;5.97;;;;;;;;;;5033544;28;20882;-83
2023/11/08 03:07:53;;;;;;;9.50;5.63;;;;;;;;;;5033579;28;20430;-83
2023/11/08 03:10:19;;;;;;;6.13;5.50;;;;;;;;;;5033275;28;20758;-83
2023/11/08 03:12:46;;;;;;;8.70;6.50;;;;;;;;;;5032079;28;20927;-83
2023/11/08 03:15:12;;;;;;;7.90;6.23;;;;;;;;;;5048730;28;20905;-83
2023/11/08 03:17:40;;;;;;;7.70;5.23;;;;;;;;;;5033404;28;20476;-83
2023/11/08 03:20:08;;;;;;;6.87;4.80;;;;;;;;;;5033398;28;20422;-85
2023/11/08 03:22:35;;;;;;;7.73;5.67;;;;;;;;;;5048728;28;20422;-83
2023/11/08 03:25:01;;;;;;;6.50;4.90;;;;;;;;;;5032940;28;20521;-83
2023/11/08 03:27:27;;;;;;;8.93;6.00;;;;;;;;;;5033272;28;20781;-84
2023/11/08 03:29:54;;;;;;;7.00;4.50;;;;;;;;;;5033274;28;20416;-84
2023/11/08 03:32:27;;;;;;;7.93;4.77;;;;;;;;;;5033253;28;20426;-83
2023/11/08 03:34:53;;;;;;;6.03;4.83;;;;;;;;;;5033295;28;20401;-83
2023/11/08 03:37:19;;;;;;;5.33;4.83;;;;;;;;;;5033090;28;20882;-83
2023/11/08 03:39:45;;;;;;;8.03;5.37;;;;;;;;;;5032886;28;20410;-84
2023/11/08 03:42:11;;;;;;;6.80;3.30;;;;;;;;;;5033169;28;20410;-83
2023/11/08 03:44:37;;;;;;;4.87;4.30;;;;;;;;;;5048516;28;20467;-84
2023/11/08 03:47:04;;;;;;;5.43;4.80;;;;;;;;;;5033026;28;20468;-84
2023/11/08 03:49:34;;;;;;;5.80;3.73;;;;;;;;;;5033077;28;20843;-83
2023/11/08 03:52:00;;;;;;;5.97;4.53;;;;;;;;;;5033015;28;20470;-84
2023/11/08 03:54:26;;;;;;;6.63;4.63;;;;;;;;;;5032590;28;20536;-84
2023/11/08 03:56:52;;;;;;;6.07;4.27;;;;;;;;;;5033030;28;20832;-84
2023/11/08 03:59:18;;;;;;;5.43;4.00;;;;;;;;;;5032962;28;20408;-84
2023/11/08 04:01:45;;;;;;;9.13;5.27;;;;;;;;;;5049843;28;20543;-85
2023/11/08 04:04:12;;;;;;;8.77;4.93;;;;;;;;;;5036966;28;20404;-84
2023/11/08 04:06:37;;;;;;;6.57;4.47;;;;;;;;;;5036823;28;20473;-83
2023/11/08 04:09:04;;;;;;;7.47;4.33;;;;;;;;;;5036942;28;20834;-83
2023/11/08 04:11:30;;;;;;;6.10;4.10;;;;;;;;;;5036581;28;20436;-82
2023/11/08 04:13:56;;;;;;;6.53;3.60;;;;;;;;;;5036799;28;20404;-83
2023/11/08 04:16:22;;;;;;;6.33;4.10;;;;;;;;;;5036811;28;20505;-83
2023/11/08 04:18:48;;;;;;;6.83;3.93;;;;;;;;;;5036660;28;20504;-83
2023/11/08 04:21:14;;;;;;;4.47;3.23;;;;;;;;;;5036633;28;20440;-82
2023/11/08 04:23:40;;;;;;;5.47;3.87;;;;;;;;;;5036649;28;20497;-84
2023/11/08 04:26:06;;;;;;;4.23;3.63;;;;;;;;;;5051600;28;20526;-82
2023/11/08 04:28:32;;;;;;;5.83;4.03;;;;;;;;;;5036568;28;20419;-83
2023/11/08 04:30:58;;;;;;;6.67;4.17;;;;;;;;;;5036270;28;20420;-81
2023/11/08 04:33:24;;;;;;;5.00;3.53;;;;;;;;;;5035183;28;20424;-83
2023/11/08 04:35:51;;;;;;;5.80;3.87;;;;;;;;;;5036393;28;20413;-83
2023/11/08 04:38:16;;;;;;;6.60;4.10;;;;;;;;;;5035057;28;20778;-83
2023/11/08 04:40:43;;;;;;;3.87;3.20;;;;;;;;;;5034681;28;20414;-82
2023/11/08 04:43:09;;;;;;;6.50;4.07;;;;;;;;;;5036267;28;20520;-82
2023/11/08 04:45:36;;;;;;;5.53;4.70;;;;;;;;;;5036178;28;20822;-82
2023/11/08 04:48:02;;;;;;;4.57;3.60;;;;;;;;;;5036137;28;20406;-83
2023/11/08 04:50:29;;;;;;;5.20;3.80;;;;;;;;;;5034826;28;20425;-83
2023/11/08 04:52:55;;;;;;;6.83;4.20;;;;;;;;;;5036110;28;20837;-83
2023/11/08 04:55:21;;;;;;;4.47;3.90;;;;;;;;;;5034184;28;20527;-82
2023/11/08 04:57:47;;;;;;;5.03;3.27;;;;;;;;;;5036002;28;20420;-83
2023/11/08 05:00:14;;;;;;;5.40;3.70;;;;;;;;;;5035970;28;20888;-84
2023/11/08 05:02:41;;;;;;;5.47;4.07;;;;;;;;;;5034562;28;20419;-83
2023/11/08 05:05:10;;;;;;;6.43;4.60;;;;;;;;;;5035784;28;20950;-83
2023/11/08 05:07:36;;;;;;;6.50;5.03;;;;;;;;;;5035851;28;20513;-83
2023/11/08 05:10:03;;;;;;;5.80;4.80;;;;;;;;;;5035423;28;20417;-85
2023/11/08 05:12:29;;;;;;;10.23;4.60;;;;;;;;;;5035660;28;20520;-84
2023/11/08 05:14:56;;;;;;;11.17;5.47;;;;;;;;;;5035658;28;20413;-84
2023/11/08 05:17:22;;;;;;;7.30;4.73;;;;;;;;;;5034655;28;20534;-84
2023/11/08 05:19:48;;;;;;;6.50;4.90;;;;;;;;;;5035602;28;20421;-87
2023/11/08 05:22:13;;;;;;;5.13;4.63;;;;;;;;;;5035612;28;20405;-86
2023/11/08 05:24:39;;;;;;;5.10;4.60;;;;;;;;;;5035207;28;20470;-85
2023/11/08 05:27:05;;;;;;;6.00;4.33;;;;;;;;;;5035368;28;20868;-84
2023/11/08 05:29:32;;;;;;;6.57;4.50;;;;;;;;;;5035569;28;20397;-82
2023/11/08 05:31:58;;;;;;;7.80;5.63;;;;;;;;;;5035385;28;20409;-84
2023/11/08 05:34:25;;;;;;;10.10;4.90;;;;;;;;;;5035338;28;20419;-84
2023/11/08 05:36:51;;;;;;;9.20;5.80;;;;;;;;;;5035353;28;20467;-85
2023/11/08 05:39:22;;;;;;;6.97;5.30;;;;;;;;;;5034878;28;20919;-84
2023/11/08 05:41:48;;;;;;;8.30;6.20;;;;;;;;;;5033941;28;20431;-84
2023/11/08 05:44:15;;;;;;;9.40;7.30;;;;;;;;;;5033888;28;20496;-84
2023/11/08 05:46:41;;;;;;;7.97;5.43;;;;;;;;;;5035017;28;20573;-83
2023/11/08 05:49:08;;;;;;;7.83;5.57;;;;;;;;;;5035006;28;20405;-83
2023/11/08 05:51:34;;;;;;;6.60;5.40;;;;;;;;;;5035084;28;20479;-83
2023/11/08 05:54:00;;;;;;;8.73;5.80;;;;;;;;;;5034687;28;20894;-84
2023/11/08 05:56:26;;;;;;;10.50;5.50;;;;;;;;;;5034675;28;20427;-83
2023/11/08 05:58:52;;;;;;;7.00;5.77;;;;;;;;;;5034829;28;20412;-84
2023/11/08 06:01:20;;;;;;;7.33;4.63;;;;;;;;;;5034803;28;20828;-84
2023/11/08 06:03:45;;;;;;;9.73;6.10;;;;;;;;;;5033531;28;20410;-84
2023/11/08 06:06:11;;;;;;;6.33;5.00;;;;;;;;;;5033350;28;20553;-86
2023/11/08 06:08:38;;;;;;;6.00;5.37;;;;;;;;;;5034697;28;20406;-83
2023/11/08 06:11:07;;;;;;;6.37;4.90;;;;;;;;;;5032665;28;20918;-83
2023/11/08 06:13:34;;;;;;;8.77;5.50;;;;;;;;;;5034147;28;20409;-82
2023/11/08 06:16:00;;;;;;;6.83;5.33;;;;;;;;;;5033694;28;20424;-88
2023/11/08 06:18:27;;;;;;;7.67;6.20;;;;;;;;;;5028729;28;20439;-83
2023/11/08 06:20:53;;;;;;;8.63;5.90;;;;;;;;;;5033529;28;20433;-88
2023/11/08 06:23:19;;;;;;;9.10;6.03;;;;;;;;;;5034385;28;20403;-83
2023/11/08 06:25:45;;;;;;;10.00;5.70;;;;;;;;;;5032298;28;20463;-88
2023/11/08 06:28:11;;;;;;;7.17;5.20;;;;;;;;;;5034429;28;20413;-83
2023/11/08 06:30:38;;;;;;;6.13;5.10;;;;;;;;;;5034125;28;20401;-82
2023/11/08 06:33:04;;;;;;;6.90;5.70;;;;;;;;;;5034196;28;20420;-83
2023/11/08 06:35:30;;;;;;;7.80;4.80;;;;;;;;;;5034151;28;20932;-83
2023/11/08 06:37:56;;;;;;;9.17;6.00;;;;;;;;;;5034110;28;20432;-82
2023/11/08 06:40:24;;;;;;;7.30;5.60;;;;;;;;;;5033816;28;20433;-82
2023/11/08 06:42:50;;;;;;;7.90;5.87;;;;;;;;;;5032779;28;20525;-82
2023/11/08 06:45:16;;;;;;;6.57;4.63;;;;;;;;;;5033873;28;20409;-82
2023/11/08 06:47:42;;;;;;;8.23;5.67;;;;;;;;;;5032619;28;20467;-82
2023/11/08 06:50:10;;;;;;;6.63;5.67;;;;;;;;;;5033832;28;20414;-83
2023/11/08 06:52:37;;;;;;;6.83;5.03;;;;;;;;;;5033793;28;20778;-83
2023/11/08 06:55:03;;;;;;;8.53;5.70;;;;;;;;;;5033460;28;20464;-82
2023/11/08 06:57:29;;;;;;;10.40;6.73;;;;;;;;;;5033646;28;20414;-82
2023/11/08 06:59:55;;;;;;;6.83;5.70;;;;;;;;;;5032474;28;20944;-82
2023/11/08 07:02:21;;;;;;;7.67;5.87;;;;;;;;;;5032815;28;21027;-81
2023/11/08 07:04:48;;;;;;;8.80;5.07;;;;;;;;;;5033550;28;20749;-82
2023/11/08 07:07:14;;;;;;;8.37;4.73;;;;;;;;;;5033666;28;20995;-82
2023/11/08 07:09:40;;;;;;;8.00;5.00;;;;;;;;;;5033067;28;20404;-82
2023/11/08 07:12:08;;;;;;;7.20;5.83;;;;;;;;;;5032338;28;20777;-82
2023/11/08 07:14:34;;;;;;;6.03;4.47;;;;;;;;;;5033268;28;20410;-84
2023/11/08 07:17:00;;;;;;;6.37;4.80;;;;;;;;;;5032195;28;20488;-83
2023/11/08 07:19:27;;;;;;;6.13;4.60;;;;;;;;;;5031801;28;20457;-82
2023/11/08 07:21:53;;;;;;;5.13;4.63;;;;;;;;;;5033370;28;20660;-82
2023/11/08 07:24:19;;;;;;;7.50;4.73;;;;;;;;;;5033084;28;20402;-82
2023/11/08 07:26:51;;;;;;;5.90;4.33;;;;;;;;;;5033139;28;21007;-83
2023/11/08 07:29:17;;;;;;;7.50;3.90;;;;;;;;;;5033811;28;20413;-82
2023/11/08 07:31:43;;;;;;;8.03;5.37;;;;;;;;;;5033234;28;20476;-82
2023/11/08 07:34:09;;;;;;;6.50;5.03;;;;;;;;;;5033257;28;20426;-83
2023/11/08 07:36:35;;;;;;;5.27;4.43;;;;;;;;;;5032223;28;20449;-84
2023/11/08 07:39:01;;;;;;;8.27;4.30;;;;;;;;;;5032928;28;20416;-83
2023/11/08 07:41:30;;;;;;;4.40;3.80;;;;;;;;;;5033096;28;20417;-81
2023/11/08 07:43:56;;;;;;;6.00;4.20;;;;;;;;;;5033202;28;20500;-83
2023/11/08 07:46:24;;;;;;;4.60;4.10;;;;;;;;;;5024302;28;20635;-86
2023/11/08 07:48:50;;;;;;;6.80;4.30;;;;;;;;;;5013006;28;20426;-85
2023/11/08 07:51:16;;;;;;;5.57;4.27;;;;;;;;;;5011624;28;20407;-91
2023/11/08 07:53:42;;;;;;;6.73;4.90;;;;;;;;;;5012685;28;20446;-86
2023/11/08 07:56:08;;;;;;;4.47;3.37;;;;;;;;;;5012543;28;21034;-88
2023/11/08 07:58:33;;;;;;;6.13;4.63;;;;;;;;;;5023476;28;20422;-80
2023/11/08 08:01:00;;;;;;;5.07;4.53;;;;;;;;;;5032825;28;20786;-80
2023/11/08 08:03:26;;;;;;;8.27;5.30;;;;;;;;;;5031235;28;20175;-80
2023/11/08 08:05:53;;;;;;;5.60;4.67;;;;;;;;;;5031443;28;20547;-80
2023/11/08 08:08:20;;;;;;;6.30;4.30;;;;;;;;;;5032764;28;20407;-80
2023/11/08 08:10:45;;;;;;;9.20;5.50;;;;;;;;;;5032389;28;20915;-80
2023/11/08 08:13:13;;;;;;;5.87;4.30;;;;;;;;;;5032833;28;20422;-80
2023/11/08 08:15:40;;;;;;;5.13;4.20;;;;;;;;;;5032409;28;20410;-83
2023/11/08 08:18:06;;;;;;;5.77;4.03;;;;;;;;;;5032821;28;20407;-81
2023/11/08 08:20:32;;;;;;;6.67;4.50;;;;;;;;;;5032707;28;20908;-80
2023/11/08 08:22:58;;;;;;;5.40;4.50;;;;;;;;;;5031382;28;20423;-79
2023/11/08 08:25:26;;;;;;;5.30;4.80;;;;;;;;;;5032289;28;20447;-79
2023/11/08 08:27:52;;;;;;;8.37;5.40;;;;;;;;;;5032643;28;20418;-80
2023/11/08 08:30:18;;;;;;;6.50;4.00;;;;;;;;;;5032609;28;20415;-81
2023/11/08 08:32:44;;;;;;;6.77;5.50;;;;;;;;;;5032652;28;20501;-80
2023/11/08 08:35:10;;;;;;;6.40;4.90;;;;;;;;;;5032526;28;20463;-79
2023/11/08 08:37:36;;;;;;;5.83;4.07;;;;;;;;;;5032926;28;20418;-80
2023/11/08 08:40:10;;;;;;;5.93;4.90;;;;;;;;;;5032250;28;20426;-80
2023/11/08 08:42:36;;;;;;;6.70;5.07;;;;;;;;;;5032528;28;20457;-82
2023/11/08 08:45:03;;;;;;;6.90;5.40;;;;;;;;;;5032372;28;20411;-82
2023/11/08 08:47:29;;;;;;;5.10;4.30;;;;;;;;;;5032158;28;20822;-81
2023/11/08 08:49:57;;;;;;;5.03;4.27;;;;;;;;;;5034893;28;20415;-81
2023/11/08 08:52:23;;;;;;;6.30;4.60;;;;;;;;;;5036048;28;20470;-80
2023/11/08 08:54:49;;;;;;;4.90;3.80;;;;;;;;;;5035551;28;20459;-84
2023/11/08 08:57:15;;;;;;;5.80;4.63;;;;;;;;;;5036349;28;20410;-87
2023/11/08 08:59:41;;;;;;;6.30;4.13;;;;;;;;;;5036308;28;20413;-87
2023/11/08 09:02:07;;;;;;;6.80;3.97;;;;;;;;;;5036185;28;20902;-86
2023/11/08 09:04:33;;;;;;;5.67;4.43;;;;;;;;;;5036421;28;20410;-89
2023/11/08 09:07:00;;;;;;;4.90;3.90;;;;;;;;;;5035950;28;20486;-84
2023/11/08 09:09:26;;;;;;;7.33;4.40;;;;;;;;;;5035507;28;20409;-83
2023/11/08 09:11:52;;;;;;;6.73;3.83;;;;;;;;;;5036057;28;20415;-86
2023/11/08 09:14:18;;;;;;;7.97;4.70;;;;;;;;;;5035920;28;20497;-84
2023/11/08 09:16:44;;;;;;;6.20;4.43;;;;;;;;;;5035892;28;20513;-83
2023/11/08 09:19:10;;;;;;;5.17;4.30;;;;;;;;;;5036102;28;20465;-84
2023/11/08 09:21:36;;;;;;;7.60;5.77;;;;;;;;;;5035647;28;20429;-81
2023/11/08 09:24:06;;;;;;;8.07;5.00;;;;;;;;;;5035449;28;20485;-87
2023/11/08 09:26:32;;;;;;;9.80;6.13;;;;;;;;;;5035593;28;20472;-81
2023/11/08 09:28:58;;;;;;;7.93;6.57;;;;;;;;;;5035663;28;20434;-85
2023/11/08 09:31:27;;;;;;;6.80;5.87;;;;;;;;;;5035795;28;20413;-82
2023/11/08 09:33:56;;;;;;;7.73;6.13;;;;;;;;;;5035488;28;20179;-84
2023/11/08 09:36:22;;;;;;;7.23;5.13;;;;;;;;;;5034130;28;20467;-84
2023/11/08 09:38:50;;;;;;;10.03;5.70;;;;;;;;;;5035198;28;20413;-81
2023/11/08 09:41:17;;;;;;;12.40;5.40;;;;;;;;;;5035669;28;20418;-85
2023/11/08 09:43:43;;;;;;;11.93;6.37;;;;;;;;;;5035716;28;20418;-85
2023/11/08 09:46:10;;;;;;;7.00;5.40;;;;;;;;;;5035381;28;20526;-88
2023/11/08 09:48:36;;;;;;;9.17;6.20;;;;;;;;;;5035182;28;20422;-88
2023/11/08 09:51:06;;;;;;;6.97;5.70;;;;;;;;;;5035319;28;20891;-80
2023/11/08 09:53:32;;;;;;;11.97;6.00;;;;;;;;;;5034565;28;20922;-81
2023/11/08 09:55:59;;;;;;;8.17;6.10;;;;;;;;;;5033979;28;20484;-85
2023/11/08 09:58:26;;;;;;;9.87;5.07;;;;;;;;;;5034822;28;20419;-85
2023/11/08 10:00:55;;;;;;;7.60;5.40;;;;;;;;;;5035015;28;20411;-90
2023/11/08 10:03:22;;;;;;;8.10;6.10;;;;;;;;;;5035438;28;20403;-85
2023/11/08 10:05:48;;;;;;;9.23;4.97;;;;;;;;;;5035120;28;20471;-84
2023/11/08 10:08:14;;;;;;;6.50;5.10;;;;;;;;;;5035173;28;20416;-85
2023/11/08 10:10:42;;;;;;;8.50;5.97;;;;;;;;;;5034544;28;20398;-82
2023/11/08 10:13:08;;;;;;;11.33;5.53;;;;;;;;;;5033516;28;20458;-84
2023/11/08 10:15:34;;;;;;;9.23;5.63;;;;;;;;;;5034463;28;20426;-90
2023/11/08 10:18:00;;;;;;;9.60;7.07;;;;;;;;;;5035406;28;20514;-85
2023/11/08 10:20:30;;;;;;;9.77;5.90;;;;;;;;;;5035312;28;20416;-89
2023/11/08 10:22:56;;;;;;;8.50;4.30;;;;;;;;;;5035313;28;20524;-91
2023/11/08 10:25:27;;;;;;;7.77;5.67;;;;;;;;;;5034840;28;20940;-90
2023/11/08 10:28:03;;;;;;;10.10;6.33;;;;;;;;;;5035137;28;20814;-85
2023/11/08 10:30:32;;;;;;;8.07;5.37;;;;;;;;;;5034745;28;20422;-88
2023/11/08 10:33:06;;;;;;;9.70;5.03;;;;;;;;;;5034406;28;20424;-92
2023/11/08 10:35:35;;;;;;;9.00;5.60;;;;;;;;;;5034028;28;20413;-88
2023/11/08 10:38:02;;;;;;;7.13;5.50;;;;;;;;;;5034924;28;20421;-91
2023/11/08 10:40:32;;;;;;;7.77;5.23;;;;;;;;;;5034769;28;20421;-91
2023/11/08 10:42:58;;;;;;;10.80;6.07;;;;;;;;;;5034873;28;20971;-88
2023/11/08 10:45:26;;;;;;;6.23;4.30;;;;;;;;;;5033640;28;20423;-90
2023/11/08 10:47:52;;;;;;;6.13;4.33;;;;;;;;;;5034966;28;20969;-88
2023/11/08 10:50:18;;;;;;;6.33;3.70;;;;;;;;;;5034781;28;20839;-86
2023/11/08 10:52:48;;;;;;;5.20;4.00;;;;;;;;;;5033740;28;20419;-83
2023/11/08 10:55:15;;;;;;;6.70;4.60;;;;;;;;;;5032892;28;20540;-84
2023/11/08 10:57:41;;;;;;;12.93;5.47;;;;;;;;;;5026673;28;20417;-83
2023/11/08 11:00:08;;;;;;;5.13;3.80;;;;;;;;;;5033582;28;20418;-85
2023/11/08 11:02:37;;;;;;;7.40;3.97;;;;;;;;;;5023471;28;20410;-83
2023/11/08 11:05:04;;;;;;;5.90;4.67;;;;;;;;;;5033089;28;20477;-83
2023/11/08 11:07:30;;;;;;;8.50;3.50;;;;;;;;;;5033181;28;20462;-82
2023/11/08 11:09:56;;;;;;;5.40;4.80;;;;;;;;;;5032992;28;20463;-84
2023/11/08 11:12:49;;;;;;;7.30;4.13;;;;;;;;;;5033544;28;20421;-84
2023/11/08 11:15:19;;;;;;;5.20;3.80;;;;;;;;;;5017831;28;20417;-86
2023/11/08 11:17:48;;;;;;;5.83;3.63;;;;;;;;;;5032388;28;20424;-86
2023/11/08 11:20:16;;;;;;;5.10;3.27;;;;;;;;;;5033593;28;20401;-85
2023/11/08 11:22:42;;;;;;;6.97;3.40;;;;;;;;;;5032115;28;20433;-85
2023/11/08 11:25:11;;;;;;;7.77;2.97;;;;;;;;;;5032907;28;20412;-84
2023/11/08 11:27:40;;;;;;;4.93;3.00;;;;;;;;;;5033169;28;20472;-87
2023/11/08 11:30:26;;;;;;;9.73;4.40;;;;;;;;;;5033285;28;20404;-86
2023/11/08 11:32:53;;;;;;;4.83;3.17;;;;;;;;;;5033252;28;20410;-84
2023/11/08 11:35:20;;;;;;;4.20;2.90;;;;;;;;;;5033086;28;20894;-84
2023/11/08 11:38:05;;;;;;;9.33;3.13;;;;;;;;;;5033238;28;20451;-85
2023/11/08 11:40:31;;;;;;;7.07;4.27;;;;;;;;;;5033779;28;20551;-87
2023/11/08 11:42:58;;;;;;;4.70;3.37;;;;;;;;;;5033201;28;20939;-85
2023/11/08 11:45:25;;;;;;;5.90;3.43;;;;;;;;;;5032996;28;20642;-84
2023/11/08 11:47:52;;;;;;;7.80;2.43;;;;;;;;;;5031827;28;20436;-86
2023/11/08 11:50:18;;;;;;;8.33;5.13;;;;;;;;;;5033369;28;20826;-88
2023/11/08 11:52:44;;;;;;;9.40;2.93;;;;;;;;;;5032888;28;20473;-85
2023/11/08 11:55:11;;;;;;;6.00;2.87;;;;;;;;;;5031296;28;20457;-89
2023/11/08 11:57:37;;;;;;;7.93;2.50;;;;;;;;;;5032224;28;20421;-87
2023/11/08 12:00:05;;;;;;;8.53;2.10;;;;;;;;;;5033696;28;20446;-89
2023/11/08 12:02:31;;;;;;;8.60;3.23;;;;;;;;;;5033252;28;20454;-86
2023/11/08 12:04:58;;;;;;;5.97;3.20;;;;;;;;;;5023854;28;20465;-87
2023/11/08 12:07:24;;;;;;;7.83;2.70;;;;;;;;;;5033675;28;20513;-86
2023/11/08 12:09:50;;;;;;;5.67;2.70;;;;;;;;;;5033796;28;20413;-88
2023/11/08 12:12:26;;;;;;;5.73;2.90;;;;;;;;;;5034932;28;20838;-83
2023/11/08 12:14:52;;;;;;;5.47;2.53;;;;;;;;;;5037322;28;20426;-83
2023/11/08 12:17:18;;;;;;;5.17;2.90;;;;;;;;;;5032674;28;20856;-85
2023/11/08 12:19:44;;;;;;;6.43;3.30;;;;;;;;;;5036128;28;20569;-86
2023/11/08 12:22:10;;;;;;;8.37;3.20;;;;;;;;;;5033479;28;20905;-84
2023/11/08 12:24:37;;;;;;;8.83;3.60;;;;;;;;;;5036334;28;20771;-85
2023/11/08 12:27:04;;;;;;;5.20;2.20;;;;;;;;;;5036521;28;20499;-86
2023/11/08 12:29:30;;;;;;;6.47;2.80;;;;;;;;;;5035457;28;20430;-86
2023/11/08 12:31:56;;;;;;;3.00;2.10;;;;;;;;;;5036181;28;20427;-88
2023/11/08 12:34:22;;;;;;;5.63;1.80;;;;;;;;;;5026808;28;20413;-85
2023/11/08 12:36:49;;;;;;;4.40;1.83;;;;;;;;;;5036081;28;20403;-85
2023/11/08 12:39:18;;;;;;;5.30;1.83;;;;;;;;;;5035546;28;20408;-87
2023/11/08 12:41:45;;;;;;;5.10;2.13;;;;;;;;;;5034170;28;20410;-89
2023/11/08 12:44:12;;;;;;;4.40;2.30;;;;;;;;;;5036575;28;20405;-90
2023/11/08 12:46:53;;;;;;;3.90;1.97;;;;;;;;;;5036688;28;20514;-88
2023/11/08 12:49:27;;;;;;;7.03;2.10;;;;;;;;;;5037025;28;20409;-85
2023/11/08 12:51:53;;;;;;;8.27;2.87;;;;;;;;;;5036299;28;20414;-85
2023/11/08 12:54:19;;;;;;;4.90;1.90;;;;;;;;;;5035580;28;20455;-92
2023/11/08 12:56:46;;;;;;;3.50;1.50;;;;;;;;;;5036515;28;20515;-90
2023/11/08 12:59:22;;;;;;;3.80;1.70;;;;;;;;;;5036635;28;20415;-88
2023/11/08 13:01:52;;;;;;;3.43;1.83;;;;;;;;;;5036729;28;20409;-89
2023/11/08 13:04:19;;;;;;;6.20;1.87;;;;;;;;;;5036710;28;20405;-88
2023/11/08 13:06:48;;;;;;;3.10;1.50;;;;;;;;;;5036229;28;20826;-90
2023/11/08 13:09:14;;;;;;;3.20;1.43;;;;;;;;;;5035900;28;20424;-90
2023/11/08 13:11:40;;;;;;;4.60;1.50;;;;;;;;;;5036375;28;20415;-90
2023/11/08 13:14:06;;;;;;;8.07;1.50;;;;;;;;;;5036090;28;20419;-87
2023/11/08 13:16:32;;;;;;;6.20;2.40;;;;;;;;;;5036618;28;20878;-88
2023/11/08 13:18:58;;;;;;;4.03;1.97;;;;;;;;;;5036189;28;20918;-88
2023/11/08 13:21:26;;;;;;;4.27;1.50;;;;;;;;;;5035521;28;20413;-85
2023/11/08 13:23:52;;;;;;;4.63;2.20;;;;;;;;;;5035192;28;20823;-85
2023/11/08 13:26:18;;;;;;;4.23;1.00;;;;;;;;;;5034173;28;20534;-86
2023/11/08 13:28:44;;;;;;;3.03;1.50;;;;;;;;;;5025383;28;20426;-87
2023/11/08 13:31:11;;;;;;;2.83;1.10;;;;;;;;;;5034866;28;20909;-87
2023/11/08 13:33:37;;;;;;;3.33;1.10;;;;;;;;;;5031078;28;20771;-86
2023/11/08 13:36:03;;;;;;;5.33;1.43;;;;;;;;;;5034267;28;20496;-86
2023/11/08 13:38:30;;;;;;;3.60;1.30;;;;;;;;;;5024811;28;20175;-88
2023/11/08 13:40:56;;;;;;;3.40;0.97;;;;;;;;;;5033719;28;20421;-86
2023/11/08 13:43:22;;;;;;;5.70;1.73;;;;;;;;;;5035263;28;20416;-86
2023/11/08 13:45:48;;;;;;;3.57;1.00;;;;;;;;;;5033777;28;20485;-86
2023/11/08 13:48:15;;;;;;;3.43;1.07;;;;;;;;;;5035004;28;20411;-86
2023/11/08 13:50:41;;;;;;;4.70;1.60;;;;;;;;;;5033826;28;20178;-86
2023/11/08 13:53:06;;;;;;;2.13;1.10;;;;;;;;;;5034648;28;20467;-84
2023/11/08 13:55:33;;;;;;;10.17;3.33;;;;;;;;;;5034744;28;20497;-85
2023/11/08 13:57:59;;;;;;;3.73;0.90;;;;;;;;;;5034824;28;20160;-87
2023/11/08 14:00:25;;;;;;;5.67;1.47;;;;;;;;;;5034871;28;20927;-85
2023/11/08 14:02:51;;;;;;;1.83;0.97;;;;;;;;;;5034754;28;20401;-87
2023/11/08 14:05:17;;;;;;;4.63;1.50;;;;;;;;;;5034764;28;20424;-84
2023/11/08 14:07:43;;;;;;;8.13;1.83;;;;;;;;;;5034447;28;20517;-87
2023/11/08 14:10:09;;;;;;;3.63;0.80;;;;;;;;;;5034684;28;20430;-86
2023/11/08 14:12:35;;;;;;;4.23;0.70;;;;;;;;;;5034591;28;20456;-85
2023/11/08 14:15:01;;;;;;;4.10;1.17;;;;;;;;;;5034493;28;20414;-85
2023/11/08 14:17:27;;;;;;;5.73;0.90;;;;;;;;;;5034462;28;20481;-85
2023/11/08 14:19:54;;;;;;;6.10;1.20;;;;;;;;;;5034516;28;20422;-85
2023/11/08 14:22:21;;;;;;;2.83;0.67;;;;;;;;;;5034448;28;20458;-84
2023/11/08 14:24:47;;;;;;;10.90;1.80;;;;;;;;;;5034038;28;20433;-86
2023/11/08 14:27:13;;;;;;;3.80;0.57;;;;;;;;;;5032952;28;20536;-85
2023/11/08 14:29:39;;;;;;;5.60;0.50;;;;;;;;;;5032978;28;20413;-85
2023/11/08 14:32:05;;;;;;;4.30;0.53;;;;;;;;;;5033880;28;20901;-86
2023/11/08 14:34:31;;;;;;;7.17;0.43;;;;;;;;;;5032799;28;20933;-86
2023/11/08 14:36:58;;;;;;;3.70;1.30;;;;;;;;;;5022400;28;20443;-86
2023/11/08 14:39:24;;;;;;;5.40;0.77;;;;;;;;;;5012811;28;20424;-86